Time;durP1;ratioP1;P1;durP2;ratioP2;P2;SDS_P1;SDS_P2;PMS_P1;PMS_P2;Temp;Humidity;BMP_temperature;BMP_pressure;BME280_temperature;BME280_humidity;BME280_pressure;Samples;Min_cycle;Max_cycle;Signal;HPM_P1;HPM_P2
2023/09/16 00:01:05;;;;;;;12.23;8.40;;;14.40;99.90;;;;;;4976253;28;20278;-78
2023/09/16 00:03:32;;;;;;;12.95;8.65;;;14.40;99.90;;;;;;4981849;28;20177;-78
2023/09/16 00:05:58;;;;;;;14.65;8.75;;;14.40;99.90;;;;;;4989223;28;20390;-78
2023/09/16 00:08:24;;;;;;;10.45;8.10;;;14.50;99.90;;;;;;4959234;28;20034;-77
2023/09/16 00:10:50;;;;;;;10.80;7.72;;;14.40;99.90;;;;;;4993437;28;20380;-78
2023/09/16 00:13:16;;;;;;;12.90;8.07;;;14.40;99.90;;;;;;4957676;28;20043;-78
2023/09/16 00:15:45;;;;;;;10.55;8.00;;;14.40;99.90;;;;;;4985059;28;20410;-78
2023/09/16 00:18:18;;;;;;;12.68;8.57;;;14.30;99.90;;;;;;4992672;28;20499;-77
2023/09/16 00:20:45;;;;;;;12.07;9.13;;;14.30;99.90;;;;;;4972200;28;20038;-77
2023/09/16 00:23:10;;;;;;;14.45;8.77;;;14.30;99.90;;;;;;4993126;28;20042;-77
2023/09/16 00:25:38;;;;;;;14.75;7.93;;;14.30;99.90;;;;;;4994197;28;20089;-77
2023/09/16 00:28:06;;;;;;;15.40;8.57;;;14.30;99.90;;;;;;4976454;28;20049;-77
2023/09/16 00:30:35;;;;;;;11.88;8.77;;;14.30;99.90;;;;;;4960052;28;20030;-77
2023/09/16 00:33:03;;;;;;;11.30;8.38;;;14.30;99.90;;;;;;4954374;28;20066;-77
2023/09/16 00:35:29;;;;;;;10.63;7.75;;;14.30;99.90;;;;;;4984287;28;20125;-77
2023/09/16 00:37:56;;;;;;;12.02;8.68;;;14.30;99.90;;;;;;4993936;28;20038;-77
2023/09/16 00:40:22;;;;;;;9.30;7.70;;;14.20;99.90;;;;;;4976243;28;20034;-77
2023/09/16 00:42:48;;;;;;;11.40;8.05;;;14.20;99.90;;;;;;4975457;28;20117;-77
2023/09/16 00:45:14;;;;;;;11.77;7.63;;;14.20;99.90;;;;;;4975729;28;20486;-77
2023/09/16 00:47:40;;;;;;;10.00;7.22;;;14.20;99.90;;;;;;4960761;28;20061;-77
2023/09/16 00:50:07;;;;;;;10.35;7.28;;;14.10;99.90;;;;;;4974978;28;20045;-77
2023/09/16 00:52:37;;;;;;;11.15;7.18;;;14.10;99.90;;;;;;4974569;28;20053;-78
2023/09/16 00:55:04;;;;;;;11.57;7.65;;;14.10;99.90;;;;;;4984408;28;20092;-77
2023/09/16 00:57:31;;;;;;;10.43;7.88;;;14.00;99.90;;;;;;4992990;28;20470;-77
2023/09/16 00:59:57;;;;;;;11.55;8.13;;;14.00;99.90;;;;;;4975562;28;20054;-77
2023/09/16 01:02:23;;;;;;;11.95;8.18;;;14.00;99.90;;;;;;4964234;28;20043;-77
2023/09/16 01:04:50;;;;;;;11.40;8.60;;;14.00;99.90;;;;;;4975823;28;20047;-77
2023/09/16 01:07:17;;;;;;;10.43;7.72;;;14.00;99.90;;;;;;4958893;28;20049;-77
2023/09/16 01:09:45;;;;;;;10.27;8.00;;;14.00;99.90;;;;;;4961082;28;20044;-77
2023/09/16 01:12:10;;;;;;;11.23;8.50;;;13.90;99.90;;;;;;4968179;28;20050;-77
2023/09/16 01:14:37;;;;;;;12.10;7.68;;;14.00;99.90;;;;;;4958691;28;20053;-77
2023/09/16 01:17:16;;;;;;;13.85;8.50;;;13.90;99.90;;;;;;4993112;28;20073;-77
2023/09/16 01:19:52;;;;;;;11.55;7.95;;;13.90;99.90;;;;;;4992401;28;20056;-77
2023/09/16 01:22:21;;;;;;;11.93;8.32;;;13.90;99.90;;;;;;4969879;28;20514;-77
2023/09/16 01:25:01;;;;;;;12.18;8.10;;;13.80;99.90;;;;;;4962783;28;20049;-77
2023/09/16 01:27:27;;;;;;;11.52;8.13;;;13.80;99.90;;;;;;4958270;28;20050;-78
2023/09/16 01:29:53;;;;;;;12.38;8.90;;;13.80;99.90;;;;;;4985513;28;20047;-78
2023/09/16 01:32:25;;;;;;;11.88;8.43;;;13.80;99.90;;;;;;4964428;28;20129;-78
2023/09/16 01:34:54;;;;;;;13.23;9.18;;;13.80;99.90;;;;;;4987604;28;20521;-78
2023/09/16 01:37:23;;;;;;;11.52;8.07;;;14.00;99.90;;;;;;4992516;28;20039;-77
2023/09/16 01:39:56;;;;;;;10.70;7.60;;;13.80;99.90;;;;;;4973782;28;20053;-77
2023/09/16 01:42:22;;;;;;;9.30;6.75;;;13.70;99.90;;;;;;4991164;28;20040;-77
2023/09/16 01:44:49;;;;;;;9.63;7.00;;;13.70;99.90;;;;;;4984011;28;20499;-77
2023/09/16 01:47:15;;;;;;;9.55;7.10;;;13.70;99.90;;;;;;4959442;28;20046;-77
2023/09/16 01:49:41;;;;;;;12.27;8.82;;;13.60;99.90;;;;;;4955117;28;20041;-77
2023/09/16 01:52:08;;;;;;;12.68;8.50;;;13.60;99.90;;;;;;4956895;28;20050;-77
2023/09/16 01:54:34;;;;;;;12.57;8.27;;;13.60;99.90;;;;;;4992320;28;20069;-77
2023/09/16 01:57:00;;;;;;;16.45;8.68;;;13.60;99.90;;;;;;4974413;28;20459;-77
2023/09/16 01:59:26;;;;;;;12.13;8.88;;;13.60;99.90;;;;;;4991900;28;20093;-77
2023/09/16 02:01:51;;;;;;;11.07;8.70;;;13.60;99.90;;;;;;4973993;28;20120;-77
2023/09/16 02:04:17;;;;;;;11.75;9.35;;;13.60;99.90;;;;;;4991843;28;20042;-77
2023/09/16 02:06:46;;;;;;;12.00;9.18;;;13.60;99.90;;;;;;4972767;28;20483;-77
2023/09/16 02:09:12;;;;;;;12.73;9.18;;;13.60;99.90;;;;;;4988012;28;20491;-77
2023/09/16 02:11:38;;;;;;;14.75;9.70;;;13.60;99.90;;;;;;4973012;28;20038;-77
2023/09/16 02:14:04;;;;;;;11.52;9.07;;;13.60;99.90;;;;;;4982088;28;20038;-77
2023/09/16 02:16:32;;;;;;;12.52;9.50;;;13.60;99.90;;;;;;4972898;28;20042;-77
2023/09/16 02:18:58;;;;;;;12.73;9.27;;;13.60;99.90;;;;;;4972383;28;20042;-77
2023/09/16 02:21:23;;;;;;;12.65;9.10;;;13.80;99.90;;;;;;4953205;28;20410;-77
2023/09/16 02:23:50;;;;;;;12.00;9.82;;;13.50;99.90;;;;;;4973988;28;20046;-77
2023/09/16 02:26:16;;;;;;;12.23;9.57;;;13.60;99.90;;;;;;4958847;28;20130;-77
2023/09/16 02:28:41;;;;;;;15.13;10.05;;;13.80;99.90;;;;;;4989955;28;20121;-77
2023/09/16 02:31:09;;;;;;;12.45;9.95;;;13.50;99.90;;;;;;4990323;28;20042;-77
2023/09/16 02:33:35;;;;;;;15.25;8.93;;;13.50;99.90;;;;;;4982832;28;20038;-76
2023/09/16 02:36:01;;;;;;;12.32;9.30;;;13.60;99.90;;;;;;4992130;28;20038;-77
2023/09/16 02:38:28;;;;;;;11.23;9.20;;;13.60;99.90;;;;;;4991510;28;20042;-77
2023/09/16 02:40:55;;;;;;;13.82;9.90;;;13.50;99.90;;;;;;4972611;28;20050;-77
2023/09/16 02:43:21;;;;;;;14.52;9.40;;;13.50;99.90;;;;;;4972737;28;20412;-77
2023/09/16 02:45:47;;;;;;;13.48;9.38;;;13.50;99.90;;;;;;4984229;28;20403;-77
2023/09/16 02:48:17;;;;;;;11.73;9.25;;;13.50;99.90;;;;;;4968053;28;20050;-77
2023/09/16 02:50:46;;;;;;;10.68;8.60;;;13.50;99.90;;;;;;4973423;28;20049;-77
2023/09/16 02:53:13;;;;;;;12.60;9.50;;;13.50;99.90;;;;;;4957877;28;20181;-77
2023/09/16 02:55:39;;;;;;;10.80;8.77;;;13.60;99.90;;;;;;4973216;28;20121;-77
2023/09/16 02:58:07;;;;;;;19.77;9.68;;;13.40;99.90;;;;;;4956358;28;20068;-77
2023/09/16 03:00:33;;;;;;;13.45;9.15;;;13.40;99.90;;;;;;4990425;28;20061;-77
2023/09/16 03:02:59;;;;;;;12.68;9.32;;;13.40;99.90;;;;;;4964722;28;20129;-77
2023/09/16 03:05:25;;;;;;;11.88;9.38;;;13.30;99.90;;;;;;4971174;28;20038;-77
2023/09/16 03:07:50;;;;;;;12.35;10.07;;;13.40;99.90;;;;;;4958155;28;20042;-77
2023/09/16 03:10:16;;;;;;;14.73;9.52;;;13.30;99.90;;;;;;4971571;28;20063;-77
2023/09/16 03:12:41;;;;;;;12.70;9.55;;;13.30;99.90;;;;;;4968547;28;20061;-77
2023/09/16 03:15:09;;;;;;;13.90;9.88;;;13.40;99.90;;;;;;4969968;28;20038;-77
2023/09/16 03:17:34;;;;;;;14.73;10.23;;;13.40;99.90;;;;;;4974198;28;20038;-77
2023/09/16 03:20:01;;;;;;;13.60;9.63;;;13.40;99.90;;;;;;4966434;28;20045;-77
2023/09/16 03:22:26;;;;;;;16.33;10.40;;;13.40;99.90;;;;;;4990795;28;20141;-77
2023/09/16 03:24:52;;;;;;;11.88;9.02;;;13.30;99.90;;;;;;4991514;28;20704;-77
2023/09/16 03:27:17;;;;;;;13.07;9.23;;;13.30;99.90;;;;;;4968134;28;20483;-77
2023/09/16 03:29:43;;;;;;;13.05;8.80;;;13.30;99.90;;;;;;4973658;28;20065;-78
2023/09/16 03:32:09;;;;;;;11.40;9.18;;;13.30;99.90;;;;;;4971291;28;20047;-78
2023/09/16 03:34:34;;;;;;;11.05;9.65;;;13.30;99.90;;;;;;4979381;28;20055;-78
2023/09/16 03:37:03;;;;;;;13.48;9.73;;;13.30;99.90;;;;;;4957006;28;20458;-77
2023/09/16 03:39:29;;;;;;;12.23;9.55;;;13.30;99.90;;;;;;4991228;28;20093;-77
2023/09/16 03:41:56;;;;;;;13.90;9.60;;;13.30;99.90;;;;;;4983948;28;20038;-78
2023/09/16 03:44:22;;;;;;;13.65;10.07;;;13.30;99.90;;;;;;4969865;28;20053;-78
2023/09/16 03:46:48;;;;;;;12.55;9.77;;;13.30;99.90;;;;;;4977551;28;20034;-78
2023/09/16 03:49:14;;;;;;;12.23;9.55;;;13.20;99.90;;;;;;4976741;28;20482;-78
2023/09/16 03:51:40;;;;;;;13.88;9.45;;;13.50;99.90;;;;;;4975198;28;20038;-77
2023/09/16 03:54:06;;;;;;;13.13;9.73;;;13.20;99.90;;;;;;4980939;28;20046;-77
2023/09/16 03:56:35;;;;;;;16.02;10.02;;;13.20;99.90;;;;;;4993649;28;20042;-77
2023/09/16 03:59:00;;;;;;;14.68;9.93;;;13.20;99.90;;;;;;4975436;28;20161;-78
2023/09/16 04:01:26;;;;;;;13.48;9.77;;;13.20;99.90;;;;;;4981597;28;20134;-78
2023/09/16 04:03:55;;;;;;;13.70;9.73;;;12.50;99.90;;;;;;4981618;28;20050;-78
2023/09/16 04:06:23;;;;;;;12.25;9.98;;;13.30;99.90;;;;;;4969955;28;20051;-77
2023/09/16 04:08:50;;;;;;;14.27;10.23;;;13.20;99.90;;;;;;4977178;28;20069;-78
2023/09/16 04:11:17;;;;;;;13.73;10.25;;;14.00;99.90;;;;;;4975433;28;20038;-78
2023/09/16 04:13:43;;;;;;;14.43;10.50;;;13.20;99.90;;;;;;4970648;28;20062;-78
2023/09/16 04:16:11;;;;;;;15.18;10.25;;;13.10;99.90;;;;;;4976529;28;20461;-78
2023/09/16 04:18:37;;;;;;;13.98;10.07;;;13.10;99.90;;;;;;4972298;28;20042;-77
2023/09/16 04:21:03;;;;;;;12.57;10.15;;;13.10;99.90;;;;;;4975627;28;20497;-77
2023/09/16 04:23:29;;;;;;;14.38;10.35;;;13.10;99.90;;;;;;4964500;28;20046;-78
2023/09/16 04:25:57;;;;;;;13.57;10.57;;;13.10;99.90;;;;;;4970637;28;20450;-78
2023/09/16 04:28:23;;;;;;;13.38;10.48;;;13.10;99.90;;;;;;4976366;28;20879;-78
2023/09/16 04:30:52;;;;;;;19.38;11.02;;;13.10;99.90;;;;;;4958682;28;20047;-78
2023/09/16 04:33:21;;;;;;;13.00;10.63;;;13.10;99.90;;;;;;4978131;28;20038;-78
2023/09/16 04:35:51;;;;;;;14.20;10.73;;;13.00;99.90;;;;;;4969425;28;20039;-78
2023/09/16 04:38:18;;;;;;;15.43;10.77;;;13.10;99.90;;;;;;4973550;28;20045;-78
2023/09/16 04:40:46;;;;;;;13.32;10.57;;;13.10;99.90;;;;;;4988480;28;20034;-77
2023/09/16 04:43:12;;;;;;;13.85;10.77;;;13.10;99.90;;;;;;4984055;28;20050;-77
2023/09/16 04:45:39;;;;;;;13.13;9.88;;;13.00;99.90;;;;;;4975548;28;20097;-77
2023/09/16 04:48:04;;;;;;;13.23;9.95;;;13.00;99.90;;;;;;4976146;28;20121;-77
2023/09/16 04:50:31;;;;;;;11.98;9.30;;;13.00;99.90;;;;;;4967859;28;20494;-78
2023/09/16 04:52:58;;;;;;;11.73;9.10;;;13.00;99.90;;;;;;4980184;28;20116;-78
2023/09/16 04:55:24;;;;;;;12.23;9.20;;;13.00;99.90;;;;;;4978681;28;20050;-78
2023/09/16 04:57:50;;;;;;;11.77;9.07;;;13.00;99.90;;;;;;4968164;28;20043;-77
2023/09/16 05:00:17;;;;;;;10.23;8.57;;;12.90;99.90;;;;;;4966695;28;20096;-78
2023/09/16 05:02:48;;;;;;;13.32;9.73;;;13.00;99.90;;;;;;4976316;23;20051;-77
2023/09/16 05:05:14;;;;;;;11.73;9.23;;;13.00;99.90;;;;;;4972295;28;20073;-77
2023/09/16 05:07:39;;;;;;;12.07;9.85;;;12.90;99.90;;;;;;4973040;28;20042;-77
2023/09/16 05:10:05;;;;;;;11.77;9.98;;;12.90;99.90;;;;;;4972835;28;20053;-78
2023/09/16 05:12:31;;;;;;;12.00;10.05;;;12.90;99.90;;;;;;4968529;28;20071;-77
2023/09/16 05:14:56;;;;;;;14.32;10.50;;;12.90;99.90;;;;;;4952265;28;20119;-77
2023/09/16 05:17:22;;;;;;;15.13;11.27;;;12.90;99.90;;;;;;4952769;28;20035;-77
2023/09/16 05:19:47;;;;;;;15.25;11.55;;;12.90;99.90;;;;;;4952768;28;20394;-79
2023/09/16 05:22:13;;;;;;;13.95;10.50;;;12.90;99.90;;;;;;4951935;28;20238;-78
2023/09/16 05:24:38;;;;;;;11.35;9.38;;;12.90;99.90;;;;;;4952625;28;20550;-77
2023/09/16 05:27:04;;;;;;;13.32;10.40;;;12.90;99.90;;;;;;4949603;28;20389;-77
2023/09/16 05:29:30;;;;;;;13.48;11.18;;;12.80;99.90;;;;;;4951206;28;20147;-77
2023/09/16 05:31:58;;;;;;;13.77;11.20;;;12.90;99.90;;;;;;4948746;28;20496;-78
2023/09/16 05:34:23;;;;;;;17.15;12.10;;;12.80;99.90;;;;;;4952830;28;20078;-78
2023/09/16 05:36:49;;;;;;;14.25;11.50;;;12.80;99.90;;;;;;4952347;28;20098;-78
2023/09/16 05:39:14;;;;;;;12.55;10.45;;;12.80;99.90;;;;;;4954456;28;20403;-77
2023/09/16 05:41:40;;;;;;;12.65;10.32;;;12.80;99.90;;;;;;4952140;28;20381;-77
2023/09/16 05:44:06;;;;;;;13.02;10.45;;;12.80;99.90;;;;;;4949742;28;20381;-77
2023/09/16 05:46:31;;;;;;;17.23;12.15;;;12.80;99.90;;;;;;4948327;28;20039;-77
2023/09/16 05:49:06;;;;;;;14.07;11.27;;;12.90;99.90;;;;;;4952262;28;20043;-77
2023/09/16 05:51:35;;;;;;;16.48;12.30;;;12.80;99.90;;;;;;4954272;28;20039;-77
2023/09/16 05:54:01;;;;;;;14.95;12.40;;;12.90;99.90;;;;;;4971936;28;20036;-77
2023/09/16 05:56:27;;;;;;;16.35;12.55;;;12.90;99.90;;;;;;4960372;28;20511;-77
2023/09/16 05:58:53;;;;;;;13.82;11.73;;;12.90;99.90;;;;;;4960191;28;20046;-79
2023/09/16 06:01:18;;;;;;;16.83;12.90;;;12.90;99.90;;;;;;4942721;28;20043;-78
2023/09/16 06:03:44;;;;;;;19.10;13.02;;;13.10;99.90;;;;;;4956345;28;20038;-79
2023/09/16 06:06:11;;;;;;;16.13;12.93;;;12.90;99.90;;;;;;4955020;28;20087;-79
2023/09/16 06:08:36;;;;;;;15.25;12.35;;;12.90;99.90;;;;;;4950737;28;20043;-78
2023/09/16 06:11:02;;;;;;;14.43;12.20;;;13.00;99.90;;;;;;4956406;28;20113;-78
2023/09/16 06:13:28;;;;;;;13.18;10.82;;;13.00;99.90;;;;;;4960074;28;20041;-78
2023/09/16 06:15:54;;;;;;;14.00;11.43;;;13.00;99.90;;;;;;4956687;28;20043;-78
2023/09/16 06:18:20;;;;;;;14.90;11.85;;;13.00;99.90;;;;;;4949296;28;20107;-79
2023/09/16 06:20:46;;;;;;;16.05;11.88;;;13.10;99.90;;;;;;4958005;28;20081;-80
2023/09/16 06:23:11;;;;;;;16.55;12.02;;;13.10;99.90;;;;;;4961662;28;20059;-79
2023/09/16 06:25:38;;;;;;;16.25;13.23;;;13.40;99.90;;;;;;4964451;28;20047;-79
2023/09/16 06:28:04;;;;;;;16.50;13.35;;;13.20;99.90;;;;;;4959206;29;20047;-80
2023/09/16 06:30:30;;;;;;;19.58;13.45;;;13.20;99.90;;;;;;4955973;28;20047;-80
2023/09/16 06:32:57;;;;;;;16.25;13.55;;;13.20;99.90;;;;;;4965704;28;20126;-80
2023/09/16 06:35:23;;;;;;;18.83;14.48;;;13.30;99.90;;;;;;4960869;28;20456;-82
2023/09/16 06:37:49;;;;;;;16.38;14.27;;;13.30;99.90;;;;;;4951135;28;20050;-82
2023/09/16 06:40:19;;;;;;;17.13;13.63;;;13.30;99.90;;;;;;4949738;28;20044;-82
2023/09/16 06:42:44;;;;;;;19.27;14.52;;;13.30;99.90;;;;;;4957892;28;20058;-81
2023/09/16 06:45:12;;;;;;;19.08;13.88;;;13.40;99.90;;;;;;4958193;28;20043;-79
2023/09/16 06:47:37;;;;;;;20.02;14.25;;;13.40;99.90;;;;;;4969229;28;20101;-82
2023/09/16 06:50:04;;;;;;;20.05;14.05;;;13.50;99.90;;;;;;4954553;28;20403;-80
2023/09/16 06:52:29;;;;;;;17.45;14.23;;;13.50;99.90;;;;;;4953917;28;20065;-80
2023/09/16 06:54:55;;;;;;;17.27;14.45;;;13.50;99.90;;;;;;4949588;28;20123;-80
2023/09/16 06:57:21;;;;;;;19.85;14.65;;;13.60;99.90;;;;;;4952032;28;20042;-81
2023/09/16 06:59:47;;;;;;;21.58;14.70;;;13.60;99.90;;;;;;4949334;28;20487;-81
2023/09/16 07:02:14;;;;;;;20.23;14.70;;;13.70;99.90;;;;;;4955439;28;20546;-82
2023/09/16 07:04:42;;;;;;;18.92;14.60;;;13.70;99.90;;;;;;4951909;28;20380;-81
2023/09/16 07:07:12;;;;;;;18.73;14.13;;;13.80;99.90;;;;;;4952070;28;20085;-82
2023/09/16 07:09:38;;;;;;;19.55;15.43;;;13.80;99.90;;;;;;4940322;28;20043;-82
2023/09/16 07:12:05;;;;;;;19.33;15.15;;;13.90;99.90;;;;;;4954845;28;20039;-81
2023/09/16 07:14:31;;;;;;;20.05;14.50;;;14.00;99.90;;;;;;4949929;28;20102;-81
2023/09/16 07:16:57;;;;;;;20.23;16.40;;;14.00;99.90;;;;;;4952323;28;20031;-80
2023/09/16 07:19:23;;;;;;;20.55;16.38;;;14.10;99.90;;;;;;4955583;28;20041;-80
2023/09/16 07:21:48;;;;;;;21.50;14.57;;;14.20;99.90;;;;;;4955673;28;20048;-80
2023/09/16 07:24:14;;;;;;;18.00;13.90;;;14.20;99.90;;;;;;4952689;28;20071;-80
2023/09/16 07:26:42;;;;;;;22.77;16.10;;;14.30;99.90;;;;;;4955106;28;20093;-79
2023/09/16 07:29:08;;;;;;;19.08;15.60;;;14.30;99.90;;;;;;4955398;28;20079;-79
2023/09/16 07:31:33;;;;;;;20.73;16.98;;;14.40;99.90;;;;;;4937063;28;20086;-80
2023/09/16 07:33:59;;;;;;;21.15;17.42;;;14.60;99.90;;;;;;4949720;28;20098;-81
2023/09/16 07:36:24;;;;;;;22.80;18.27;;;14.70;99.90;;;;;;4959448;28;20041;-80
2023/09/16 07:38:50;;;;;;;22.63;18.17;;;14.90;99.90;;;;;;4954891;28;20094;-80
2023/09/16 07:41:16;;;;;;;25.63;18.17;;;15.00;99.90;;;;;;4954842;28;20101;-80
2023/09/16 07:43:41;;;;;;;22.80;18.23;;;15.20;99.90;;;;;;4950836;28;20047;-81
2023/09/16 07:46:07;;;;;;;22.33;17.92;;;15.40;99.90;;;;;;4954659;28;20456;-82
2023/09/16 07:48:32;;;;;;;20.65;16.80;;;15.50;99.90;;;;;;4950340;28;20499;-81
2023/09/16 07:50:58;;;;;;;22.08;16.65;;;15.60;99.90;;;;;;4953604;28;20499;-81
2023/09/16 07:53:23;;;;;;;22.35;16.67;;;15.80;99.90;;;;;;4955222;28;20073;-81
2023/09/16 07:55:49;;;;;;;19.33;15.90;;;15.90;99.90;;;;;;4953025;28;20054;-79
2023/09/16 07:58:14;;;;;;;21.65;15.95;;;16.10;99.90;;;;;;4953329;28;20195;-80
2023/09/16 08:00:40;;;;;;;21.27;15.18;;;16.20;99.90;;;;;;4937317;28;20105;-79
2023/09/16 08:03:05;;;;;;;21.80;15.23;;;16.30;99.90;;;;;;4960714;28;20055;-80
2023/09/16 08:05:31;;;;;;;19.35;14.77;;;16.40;99.90;;;;;;4954620;29;20031;-80
2023/09/16 08:07:56;;;;;;;18.27;14.77;;;16.50;99.90;;;;;;4956163;28;20047;-80
2023/09/16 08:10:22;;;;;;;20.95;14.38;;;16.50;99.90;;;;;;4951915;28;20118;-79
2023/09/16 08:12:48;;;;;;;17.75;13.98;;;16.60;99.90;;;;;;4954632;28;20039;-80
2023/09/16 08:15:13;;;;;;;17.13;13.93;;;16.70;99.90;;;;;;4954156;28;20082;-80
2023/09/16 08:17:39;;;;;;;16.13;12.75;;;16.90;99.90;;;;;;4952999;28;20050;-80
2023/09/16 08:20:06;;;;;;;17.15;13.40;;;16.90;99.90;;;;;;4954706;28;20122;-80
2023/09/16 08:22:31;;;;;;;15.40;13.80;;;17.00;99.90;;;;;;4953283;28;20406;-80
2023/09/16 08:24:57;;;;;;;16.80;13.35;;;17.00;99.90;;;;;;4954528;28;20047;-80
2023/09/16 08:27:23;;;;;;;16.90;14.05;;;17.00;99.90;;;;;;4957813;29;20118;-80
2023/09/16 08:29:52;;;;;;;17.25;13.38;;;16.90;99.90;;;;;;4960642;28;20051;-80
2023/09/16 08:32:18;;;;;;;17.70;13.73;;;16.90;99.90;;;;;;4959301;28;20043;-80
2023/09/16 08:34:44;;;;;;;18.80;12.82;;;16.90;99.90;;;;;;4959787;29;20055;-80
2023/09/16 08:37:13;;;;;;;15.27;11.68;;;16.90;99.90;;;;;;4955585;28;20039;-80
2023/09/16 08:39:38;;;;;;;15.80;12.20;;;17.00;99.90;;;;;;4958981;28;20146;-79
2023/09/16 08:42:07;;;;;;;15.18;12.52;;;16.90;99.90;;;;;;4958744;28;20122;-80
2023/09/16 08:44:38;;;;;;;15.55;12.45;;;17.10;99.90;;;;;;4965405;28;20518;-80
2023/09/16 08:47:09;;;;;;;16.00;12.85;;;17.20;99.90;;;;;;4958907;29;20062;-80
2023/09/16 08:49:40;;;;;;;15.13;12.65;;;17.30;99.90;;;;;;4959526;28;20054;-79
2023/09/16 08:52:08;;;;;;;16.42;12.90;;;17.30;99.90;;;;;;4959899;28;20057;-80
2023/09/16 08:54:35;;;;;;;15.57;11.68;;;17.40;99.90;;;;;;4969868;28;20157;-79
2023/09/16 08:57:02;;;;;;;15.70;11.88;;;17.40;99.90;;;;;;4949087;28;20108;-79
2023/09/16 08:59:29;;;;;;;16.63;11.98;;;17.50;99.90;;;;;;4963343;28;20097;-80
2023/09/16 09:01:55;;;;;;;17.02;11.45;;;17.60;99.90;;;;;;4959186;28;20381;-79
2023/09/16 09:04:20;;;;;;;14.05;11.38;;;17.70;99.90;;;;;;4958579;28;20079;-80
2023/09/16 09:06:48;;;;;;;14.40;10.27;;;17.80;99.90;;;;;;4958450;28;20125;-80
2023/09/16 09:09:13;;;;;;;12.70;9.43;;;17.80;99.90;;;;;;4958208;28;20042;-80
2023/09/16 09:11:40;;;;;;;9.93;7.20;;;17.90;99.90;;;;;;4954401;28;20065;-80
2023/09/16 09:14:09;;;;;;;9.98;7.65;;;18.00;99.90;;;;;;4953780;29;20070;-80
2023/09/16 09:16:38;;;;;;;13.68;7.78;;;18.00;99.90;;;;;;4953511;29;20035;-80
2023/09/16 09:19:04;;;;;;;13.63;10.18;;;18.20;99.90;;;;;;4953732;28;20070;-80
2023/09/16 09:21:32;;;;;;;12.30;8.98;;;18.40;99.90;;;;;;4952148;28;20495;-80
2023/09/16 09:23:58;;;;;;;9.93;7.85;;;18.50;99.90;;;;;;4947620;29;20555;-80
2023/09/16 09:26:24;;;;;;;12.25;8.30;;;18.80;99.90;;;;;;4953156;29;20054;-80
2023/09/16 09:28:49;;;;;;;11.48;8.35;;;19.00;99.90;;;;;;4953164;29;20047;-80
2023/09/16 09:31:15;;;;;;;11.02;8.27;;;19.20;99.90;;;;;;4953125;29;20510;-80
2023/09/16 09:33:41;;;;;;;12.25;8.82;;;19.40;99.90;;;;;;4953205;28;20047;-80
2023/09/16 09:36:15;;;;;;;13.98;9.25;;;19.40;99.90;;;;;;4953344;29;20049;-80
2023/09/16 09:38:45;;;;;;;10.30;8.52;;;19.40;99.90;;;;;;4952886;28;20243;-80
2023/09/16 09:41:12;;;;;;;11.55;9.52;;;19.50;99.90;;;;;;4969227;28;20380;-80
2023/09/16 09:43:37;;;;;;;;;;;19.70;99.90;;;;;;4955397;28;20051;-80
2023/09/16 09:46:03;;;;;;;;;;;19.90;99.90;;;;;;4953779;29;19925;-80
2023/09/16 09:48:29;;;;;;;;;;;20.10;99.90;;;;;;4953526;29;19922;-80
2023/09/16 09:50:55;;;;;;;12.05;8.68;;;20.50;99.90;;;;;;4939442;28;20363;-80
2023/09/16 09:53:22;;;;;;;11.30;9.10;;;20.70;99.90;;;;;;4952829;29;20134;-80
2023/09/16 09:55:48;;;;;;;;;;;20.80;99.90;;;;;;4951982;28;20043;-80
2023/09/16 09:58:13;;;;;;;;;;;20.90;99.90;;;;;;4952448;28;19925;-80
2023/09/16 10:00:48;;;;;;;10.00;8.13;;;21.10;99.90;;;;;;4953404;28;19961;-80
2023/09/16 10:03:16;;;;;;;14.65;9.13;;;21.40;99.90;;;;;;4957421;28;20070;-80
2023/09/16 10:05:42;;;;;;;9.20;7.75;;;21.60;99.90;;;;;;4952223;29;20047;-79
2023/09/16 10:08:07;;;;;;;11.80;7.88;;;21.90;99.90;;;;;;4953054;28;20050;-79
2023/09/16 10:10:34;;;;;;;8.90;7.88;;;22.10;99.90;;;;;;4953100;28;20047;-79
2023/09/16 10:13:00;;;;;;;9.10;7.53;;;22.30;99.90;;;;;;4952954;28;20066;-80
2023/09/16 10:15:29;;;;;;;10.82;7.30;;;22.50;99.90;;;;;;4953692;28;20043;-80
2023/09/16 10:17:56;;;;;;;9.88;7.50;;;22.60;99.90;;;;;;4951218;28;20093;-80
2023/09/16 10:20:23;;;;;;;10.38;7.45;;;22.50;99.90;;;;;;4951723;28;20047;-80
2023/09/16 10:22:49;;;;;;;10.60;7.65;;;22.60;99.90;;;;;;4956215;28;20069;-80
2023/09/16 10:25:17;;;;;;;11.20;8.20;;;22.60;99.90;;;;;;4957546;28;20050;-80
2023/09/16 10:27:56;;;;;;;9.40;7.40;;;22.70;99.90;;;;;;4947945;28;20043;-80
2023/09/16 10:30:22;;;;;;;9.82;7.15;;;22.70;99.90;;;;;;4952436;28;20043;-80
2023/09/16 10:32:48;;;;;;;9.52;6.47;;;22.70;99.90;;;;;;4952499;28;20051;-80
2023/09/16 10:35:14;;;;;;;11.57;6.20;;;22.70;99.90;;;;;;4952011;28;20067;-81
2023/09/16 10:37:43;;;;;;;9.48;6.57;;;22.70;99.90;;;;;;4948601;28;20046;-81
2023/09/16 10:40:10;;;;;;;8.30;6.53;;;22.70;99.90;;;;;;4950728;28;20058;-80
2023/09/16 10:42:37;;;;;;;9.60;8.13;;;22.70;99.90;;;;;;4947026;28;20058;-80
2023/09/16 10:45:03;;;;;;;9.65;7.75;;;22.70;99.90;;;;;;4948929;28;20031;-81
2023/09/16 10:47:31;;;;;;;8.25;7.03;;;22.80;99.90;;;;;;4947993;28;20043;-80
2023/09/16 10:49:56;;;;;;;13.15;8.93;;;23.00;99.90;;;;;;4948041;28;20133;-80
2023/09/16 10:52:34;;;;;;;8.73;7.78;;;23.10;99.90;;;;;;4949012;28;20074;-81
2023/09/16 10:55:08;;;;;;;12.75;8.38;;;23.30;99.90;;;;;;4950062;29;20051;-80
2023/09/16 10:57:45;;;;;;;11.68;8.52;;;23.30;99.90;;;;;;4966329;28;20411;-80
2023/09/16 11:00:13;;;;;;;11.13;8.35;;;23.30;99.90;;;;;;4937641;29;20059;-79
2023/09/16 11:02:52;;;;;;;11.35;8.65;;;23.40;99.90;;;;;;4951997;28;20059;-80
2023/09/16 11:05:18;;;;;;;10.50;7.72;;;23.50;99.90;;;;;;4961009;28;20043;-80
2023/09/16 11:07:44;;;;;;;8.95;7.53;;;23.60;99.90;;;;;;4951383;28;20138;-80
2023/09/16 11:10:11;;;;;;;8.40;7.20;;;23.70;99.90;;;;;;4947214;28;20118;-82
2023/09/16 11:12:37;;;;;;;;;;;23.80;99.90;;;;;;4933577;29;20047;-79
2023/09/16 11:15:09;;;;;;;8.75;5.65;;;24.00;99.90;;;;;;4950248;28;19957;-80
2023/09/16 11:17:39;;;;;;;7.13;5.78;;;24.20;99.90;;;;;;4949327;28;20039;-78
2023/09/16 11:20:21;;;;;;;8.55;5.57;;;24.40;99.90;;;;;;4933400;29;20043;-80
2023/09/16 11:22:50;;;;;;;8.25;5.20;;;24.40;99.90;;;;;;4945069;28;20085;-80
2023/09/16 11:25:16;;;;;;;5.82;4.85;;;24.50;99.90;;;;;;4946945;28;20395;-80
2023/09/16 11:27:44;;;;;;;6.05;4.43;;;24.60;99.90;;;;;;4945646;28;20480;-80
2023/09/16 11:30:12;;;;;;;7.80;3.80;;;24.70;99.90;;;;;;4950239;28;20055;-80
2023/09/16 11:32:55;;;;;;;4.65;3.38;;;24.90;99.90;;;;;;4946240;28;20094;-80
2023/09/16 11:35:23;;;;;;;6.60;3.30;;;25.10;99.90;;;;;;4945779;28;20055;-80
2023/09/16 11:37:49;;;;;;;3.95;2.63;;;25.20;99.90;;;;;;4975430;23;20035;-75
2023/09/16 11:40:15;;;;;;;4.78;3.03;;;25.30;99.90;;;;;;4970209;28;20053;-76
2023/09/16 11:42:41;;;;;;;5.80;3.40;;;25.40;99.90;;;;;;4973059;28;20046;-74
2023/09/16 11:45:09;;;;;;;3.17;2.72;;;25.60;99.90;;;;;;4982863;28;20043;-75
2023/09/16 11:47:37;;;;;;;3.72;3.00;;;25.60;99.90;;;;;;4973650;28;20042;-75
2023/09/16 11:50:21;;;;;;;6.15;3.42;;;25.70;99.90;;;;;;4941583;28;20410;-75
2023/09/16 11:52:49;;;;;;;5.22;3.40;;;25.80;99.90;;;;;;4936916;28;20561;-75
2023/09/16 11:55:16;;;;;;;5.25;3.92;;;25.90;99.90;;;;;;4958342;28;20047;-75
2023/09/16 11:57:42;;;;;;;6.22;3.70;;;26.10;99.90;;;;;;4958064;28;20045;-75
2023/09/16 12:00:11;;;;;;;6.95;3.70;;;26.20;99.90;;;;;;4954388;28;20050;-76
2023/09/16 12:02:37;;;;;;;6.53;3.60;;;26.30;99.90;;;;;;4970987;28;20039;-76
2023/09/16 12:05:03;;;;;;;8.95;3.42;;;26.40;99.90;;;;;;4964853;28;20563;-75
2023/09/16 12:07:34;;;;;;;9.88;3.90;;;26.30;99.70;;;;;;4958103;28;20498;-75
2023/09/16 12:10:00;;;;;;;7.10;2.97;;;26.30;99.20;;;;;;4958442;28;20568;-75
2023/09/16 12:12:27;;;;;;;4.75;2.83;;;26.20;99.00;;;;;;4974205;28;20035;-75
2023/09/16 12:14:53;;;;;;;3.88;3.03;;;26.30;98.60;;;;;;4958953;28;20054;-75
2023/09/16 12:17:18;;;;;;;5.18;3.00;;;26.10;98.50;;;;;;4973986;28;20027;-75
2023/09/16 12:19:52;;;;;;;3.53;3.03;;;25.90;98.00;;;;;;4962132;28;20137;-75
2023/09/16 12:22:18;;;;;;;4.65;2.92;;;25.80;97.50;;;;;;4956872;28;20039;-75
2023/09/16 12:24:44;;;;;;;5.32;3.10;;;25.70;97.90;;;;;;4974557;28;20043;-75
2023/09/16 12:27:11;;;;;;;4.22;2.90;;;25.50;98.10;;;;;;4974815;28;20086;-75
2023/09/16 12:29:36;;;;;;;3.95;2.70;;;25.50;98.60;;;;;;4956240;28;20578;-75
2023/09/16 12:32:09;;;;;;;4.57;2.95;;;25.60;98.80;;;;;;4973845;28;20094;-75
2023/09/16 12:34:38;;;;;;;5.10;2.55;;;25.60;98.40;;;;;;4946721;28;20039;-77